Time;durP1;ratioP1;P1;durP2;ratioP2;P2;SDS_P1;SDS_P2;PMS_P1;PMS_P2;Temp;Humidity;BMP_temperature;BMP_pressure;BME280_temperature;BME280_humidity;BME280_pressure;Samples;Min_cycle;Max_cycle;Signal;HPM_P1;HPM_P2
2020/12/14 00:02:03;;;;;;;13.23;9.77;;;;;;;;;;5009650;28;20635;-85
2020/12/14 00:05:08;;;;;;;12.97;9.43;;;;;;;;;;4990763;28;20596;-85
2020/12/14 00:08:12;;;;;;;13.70;9.33;;;;;;;;;;4993271;28;20585;-85
2020/12/14 00:11:16;;;;;;;37.47;10.80;;;;;;;;;;5003118;28;20627;-85
2020/12/14 00:14:21;;;;;;;11.47;8.53;;;;;;;;;;4982627;28;20619;-85
2020/12/14 00:17:25;;;;;;;11.20;8.17;;;;;;;;;;5004601;28;20648;-85
2020/12/14 00:20:29;;;;;;;12.43;8.67;;;;;;;;;;4993430;28;20615;-85
2020/12/14 00:23:33;;;;;;;10.30;8.07;;;;;;;;;;5003690;28;20623;-85
2020/12/14 00:26:38;;;;;;;9.67;7.70;;;;;;;;;;5008090;28;20963;-85
2020/12/14 00:29:42;;;;;;;10.47;7.37;;;;;;;;;;4996344;28;20621;-85
2020/12/14 00:32:46;;;;;;;11.60;7.80;;;;;;;;;;5011985;28;20552;-85
2020/12/14 00:35:50;;;;;;;9.70;7.23;;;;;;;;;;5022635;28;20615;-85
2020/12/14 00:38:54;;;;;;;10.43;7.87;;;;;;;;;;5023817;28;20556;-85
2020/12/14 00:41:59;;;;;;;11.63;8.23;;;;;;;;;;4992761;28;20647;-85
2020/12/14 00:45:03;;;;;;;16.37;9.33;;;;;;;;;;4998562;28;20622;-85
2020/12/14 00:48:07;;;;;;;12.90;9.17;;;;;;;;;;5004257;28;20584;-85
2020/12/14 00:51:12;;;;;;;14.43;9.97;;;;;;;;;;5007810;28;20650;-85
2020/12/14 00:54:16;;;;;;;11.33;8.50;;;;;;;;;;5023528;28;20591;-85
2020/12/14 00:57:20;;;;;;;16.47;11.03;;;;;;;;;;4981690;28;20588;-85
2020/12/14 01:00:24;;;;;;;13.73;10.50;;;;;;;;;;4992834;28;20651;-85
2020/12/14 01:03:28;;;;;;;20.60;11.20;;;;;;;;;;4992991;28;20577;-85
2020/12/14 01:06:32;;;;;;;27.77;10.30;;;;;;;;;;4999495;28;20683;-85
2020/12/14 01:09:37;;;;;;;29.90;10.30;;;;;;;;;;5011863;28;20599;-85
2020/12/14 01:12:41;;;;;;;75.43;12.00;;;;;;;;;;5011190;28;20615;-85
2020/12/14 01:15:46;;;;;;;19.07;11.10;;;;;;;;;;5005678;28;20619;-85
2020/12/14 01:18:50;;;;;;;75.80;14.07;;;;;;;;;;4992130;28;20960;-85
2020/12/14 01:21:55;;;;;;;32.87;11.57;;;;;;;;;;5010795;28;20654;-85
2020/12/14 01:24:59;;;;;;;35.70;13.63;;;;;;;;;;4994074;28;20596;-85
2020/12/14 01:28:03;;;;;;;12.07;8.00;;;;;;;;;;5014968;28;20588;-86
2020/12/14 01:31:07;;;;;;;10.90;7.87;;;;;;;;;;5011262;28;20623;-85
2020/12/14 01:34:11;;;;;;;14.67;7.80;;;;;;;;;;5001544;28;20956;-85
2020/12/14 01:37:15;;;;;;;47.73;9.57;;;;;;;;;;4992334;28;21146;-85
2020/12/14 01:40:20;;;;;;;50.17;10.13;;;;;;;;;;4997695;28;20647;-85
2020/12/14 01:43:25;;;;;;;22.43;8.77;;;;;;;;;;5024731;28;20616;-85
2020/12/14 01:46:30;;;;;;;13.63;9.57;;;;;;;;;;5000024;28;20588;-85
2020/12/14 01:49:35;;;;;;;14.87;10.73;;;;;;;;;;4999498;28;20587;-85
2020/12/14 01:52:42;;;;;;;14.67;10.57;;;;;;;;;;5011583;28;20560;-85
2020/12/14 01:55:47;;;;;;;15.43;11.23;;;;;;;;;;5004983;28;20954;-85
2020/12/14 01:58:51;;;;;;;13.97;10.77;;;;;;;;;;5013714;28;21218;-85
2020/12/14 02:01:55;;;;;;;15.23;11.50;;;;;;;;;;4991468;28;20651;-85
2020/12/14 02:05:01;;;;;;;13.63;10.67;;;;;;;;;;5007861;28;20619;-85
2020/12/14 02:08:06;;;;;;;15.90;11.53;;;;;;;;;;5009838;28;20552;-85
2020/12/14 02:11:10;;;;;;;14.47;11.27;;;;;;;;;;4991578;28;20980;-85
2020/12/14 02:14:14;;;;;;;14.13;10.53;;;;;;;;;;4980193;28;21110;-85
2020/12/14 02:17:19;;;;;;;14.57;10.37;;;;;;;;;;4986698;28;20625;-85
2020/12/14 02:20:23;;;;;;;15.40;10.97;;;;;;;;;;4991290;28;21232;-85
2020/12/14 02:23:27;;;;;;;14.97;9.67;;;;;;;;;;5002293;28;20601;-85
2020/12/14 02:26:32;;;;;;;12.53;9.80;;;;;;;;;;4989258;28;21189;-85
2020/12/14 02:29:36;;;;;;;13.20;9.57;;;;;;;;;;4996705;28;20583;-85
2020/12/14 02:32:40;;;;;;;13.83;10.00;;;;;;;;;;5001976;28;20549;-85
2020/12/14 02:35:45;;;;;;;12.67;9.30;;;;;;;;;;5021854;28;20591;-85
2020/12/14 02:38:50;;;;;;;12.40;9.03;;;;;;;;;;5010367;28;20580;-85
2020/12/14 02:41:54;;;;;;;18.47;9.90;;;;;;;;;;5021484;28;20643;-85
2020/12/14 02:44:59;;;;;;;11.90;9.07;;;;;;;;;;5004016;28;20588;-85
2020/12/14 02:48:04;;;;;;;13.17;9.33;;;;;;;;;;4996625;28;20583;-85
2020/12/14 02:51:08;;;;;;;10.37;8.20;;;;;;;;;;5010905;28;20615;-85
2020/12/14 02:54:12;;;;;;;9.70;7.67;;;;;;;;;;5010663;28;20599;-85
2020/12/14 02:57:16;;;;;;;10.47;8.00;;;;;;;;;;4994314;28;21190;-85
2020/12/14 03:00:21;;;;;;;9.00;7.23;;;;;;;;;;5013837;28;20975;-85
2020/12/14 03:03:25;;;;;;;14.33;9.03;;;;;;;;;;4991299;28;20588;-85
2020/12/14 03:06:29;;;;;;;13.00;9.50;;;;;;;;;;5002220;28;21201;-85
2020/12/14 03:09:33;;;;;;;15.53;10.90;;;;;;;;;;5014419;28;20595;-85
2020/12/14 03:12:38;;;;;;;15.90;11.70;;;;;;;;;;5016109;28;20584;-85
2020/12/14 03:15:42;;;;;;;13.47;10.57;;;;;;;;;;4998451;28;20592;-85
2020/12/14 03:18:46;;;;;;;13.70;10.67;;;;;;;;;;5001790;28;20589;-85
2020/12/14 03:21:50;;;;;;;14.00;10.83;;;;;;;;;;5011304;28;20652;-85
2020/12/14 03:24:54;;;;;;;13.23;10.20;;;;;;;;;;5006536;28;21156;-85
2020/12/14 03:27:59;;;;;;;12.47;9.83;;;;;;;;;;4979901;28;20585;-85
2020/12/14 03:31:03;;;;;;;11.93;9.07;;;;;;;;;;4990902;28;20651;-85
2020/12/14 03:34:08;;;;;;;13.53;9.57;;;;;;;;;;4988530;28;21170;-85
2020/12/14 03:37:11;;;;;;;11.43;9.67;;;;;;;;;;5002595;28;20940;-85
2020/12/14 03:40:16;;;;;;;10.90;9.13;;;;;;;;;;4987549;28;21224;-85
2020/12/14 03:43:20;;;;;;;11.20;9.37;;;;;;;;;;4991843;28;20588;-85
2020/12/14 03:46:27;;;;;;;11.57;8.90;;;;;;;;;;5005006;28;20591;-84
2020/12/14 03:49:31;;;;;;;12.10;9.17;;;;;;;;;;5006155;28;20576;-85
2020/12/14 03:52:35;;;;;;;10.63;8.67;;;;;;;;;;5006463;28;20548;-85
2020/12/14 03:55:40;;;;;;;11.60;9.47;;;;;;;;;;5005935;28;21158;-85
2020/12/14 03:58:44;;;;;;;13.80;9.10;;;;;;;;;;5006262;28;20596;-85
2020/12/14 04:01:53;;;;;;;11.03;8.87;;;;;;;;;;4996702;28;21248;-85
2020/12/14 04:04:57;;;;;;;10.03;8.43;;;;;;;;;;5008512;28;21149;-85
2020/12/14 04:08:03;;;;;;;10.53;8.10;;;;;;;;;;5014148;28;20591;-85
2020/12/14 04:11:07;;;;;;;10.10;8.07;;;;;;;;;;4999199;28;20217;-85
2020/12/14 04:14:11;;;;;;;10.17;7.40;;;;;;;;;;5023759;28;20197;-85
2020/12/14 04:17:15;;;;;;;9.90;8.20;;;;;;;;;;5002906;28;20631;-85
2020/12/14 04:20:20;;;;;;;10.00;7.73;;;;;;;;;;5017185;28;20640;-85
2020/12/14 04:23:24;;;;;;;8.00;6.80;;;;;;;;;;4995501;28;20587;-85
2020/12/14 04:26:28;;;;;;;9.23;7.63;;;;;;;;;;4989838;28;20660;-85
2020/12/14 04:29:32;;;;;;;8.87;7.23;;;;;;;;;;5013269;28;20592;-85
2020/12/14 04:32:36;;;;;;;9.47;7.70;;;;;;;;;;5031565;28;20592;-85
2020/12/14 04:35:41;;;;;;;10.27;7.60;;;;;;;;;;4994432;28;20603;-85
2020/12/14 04:38:45;;;;;;;10.63;8.30;;;;;;;;;;4983312;28;20663;-85
2020/12/14 04:41:55;;;;;;;11.13;7.63;;;;;;;;;;4982873;28;20620;-85
2020/12/14 04:45:00;;;;;;;10.33;7.83;;;;;;;;;;5024415;28;20603;-85
2020/12/14 04:48:06;;;;;;;9.50;8.00;;;;;;;;;;5002807;28;20544;-85
2020/12/14 04:51:10;;;;;;;11.33;8.80;;;;;;;;;;5004449;28;20647;-85
2020/12/14 04:54:16;;;;;;;9.77;8.03;;;;;;;;;;5013933;28;20540;-85
2020/12/14 04:57:21;;;;;;;11.10;8.77;;;;;;;;;;5007013;28;20619;-85
2020/12/14 05:00:26;;;;;;;10.13;8.10;;;;;;;;;;5047017;22;20650;-86
2020/12/14 05:03:30;;;;;;;10.17;8.20;;;;;;;;;;4984598;28;20783;-85
2020/12/14 05:06:50;;;;;;;10.13;7.80;;;;;;;;;;4975376;28;20198;-84
2020/12/14 05:10:01;;;;;;;12.73;9.00;;;;;;;;;;5009621;28;21151;-86
2020/12/14 05:13:12;;;;;;;10.80;8.20;;;;;;;;;;4983703;28;20589;-86
2020/12/14 05:16:33;;;;;;;11.20;8.37;;;;;;;;;;4973775;28;20617;-85
2020/12/14 05:19:37;;;;;;;12.33;8.97;;;;;;;;;;4968705;28;20583;-85
2020/12/14 05:22:54;;;;;;;11.90;8.67;;;;;;;;;;4943347;28;20653;-86
2020/12/14 05:26:17;;;;;;;12.27;8.67;;;;;;;;;;4951686;28;20590;-87
2020/12/14 05:29:26;;;;;;;11.67;8.30;;;;;;;;;;4973298;28;20590;-86
2020/12/14 05:32:31;;;;;;;11.57;8.50;;;;;;;;;;4972484;28;20985;-86
2020/12/14 05:35:43;;;;;;;10.93;8.33;;;;;;;;;;4961891;28;20597;-85
2020/12/14 05:38:47;;;;;;;11.37;8.13;;;;;;;;;;4972820;28;20633;-86
2020/12/14 05:41:52;;;;;;;12.73;8.77;;;;;;;;;;4962461;28;20633;-86
2020/12/14 05:44:56;;;;;;;11.33;8.37;;;;;;;;;;4967164;28;20585;-85
2020/12/14 05:48:00;;;;;;;11.70;8.27;;;;;;;;;;4962171;28;20929;-86
2020/12/14 05:51:08;;;;;;;13.87;8.33;;;;;;;;;;4964009;28;20649;-87
2020/12/14 05:54:13;;;;;;;10.37;8.33;;;;;;;;;;4986593;28;20601;-87
2020/12/14 05:57:36;;;;;;;12.53;8.17;;;;;;;;;;4977102;28;20589;-87
2020/12/14 06:00:47;;;;;;;16.03;8.53;;;;;;;;;;4983016;28;20649;-85
2020/12/14 06:03:55;;;;;;;12.07;8.33;;;;;;;;;;4972510;28;21108;-85
2020/12/14 06:07:06;;;;;;;10.73;8.07;;;;;;;;;;4972687;28;20585;-86
2020/12/14 06:10:15;;;;;;;10.63;7.83;;;;;;;;;;4972584;28;20546;-85
2020/12/14 06:13:30;;;;;;;10.97;8.57;;;;;;;;;;4968343;28;20593;-85
2020/12/14 06:16:35;;;;;;;11.13;8.40;;;;;;;;;;4984297;28;20542;-86
2020/12/14 06:19:42;;;;;;;9.80;7.27;;;;;;;;;;4933844;29;21067;-85
2020/12/14 06:22:56;;;;;;;11.57;8.30;;;;;;;;;;4983882;28;20593;-86
2020/12/14 06:26:05;;;;;;;10.83;8.00;;;;;;;;;;4961353;28;20597;-86
2020/12/14 06:29:09;;;;;;;11.27;8.30;;;;;;;;;;4961491;28;20545;-86
2020/12/14 06:32:34;;;;;;;10.67;8.23;;;;;;;;;;4946164;28;20989;-85
2020/12/14 06:35:48;;;;;;;12.07;8.33;;;;;;;;;;4973149;28;20942;-86
2020/12/14 06:38:52;;;;;;;11.53;8.23;;;;;;;;;;4983662;28;20629;-85
2020/12/14 06:42:09;;;;;;;11.63;8.50;;;;;;;;;;4960896;28;20637;-86
2020/12/14 06:45:15;;;;;;;14.20;8.57;;;;;;;;;;4960613;28;20589;-85
2020/12/14 06:48:34;;;;;;;12.23;8.30;;;;;;;;;;4972032;28;20605;-85
2020/12/14 06:51:54;;;;;;;11.13;8.33;;;;;;;;;;4971905;28;20625;-85
2020/12/14 06:54:58;;;;;;;11.77;8.17;;;;;;;;;;4960716;28;20625;-84
2020/12/14 06:58:02;;;;;;;10.20;7.63;;;;;;;;;;4971505;28;20973;-85
2020/12/14 07:01:36;;;;;;;11.00;8.40;;;;;;;;;;4960025;28;20672;-85
2020/12/14 07:04:41;;;;;;;10.93;7.87;;;;;;;;;;4982427;28;20574;-84
2020/12/14 07:07:52;;;;;;;10.60;8.03;;;;;;;;;;4970929;28;20589;-84
2020/12/14 07:11:29;;;;;;;11.87;8.63;;;;;;;;;;4971312;28;20633;-84
2020/12/14 07:14:32;;;;;;;12.90;8.10;;;;;;;;;;4949694;28;20617;-86
2020/12/14 07:17:37;;;;;;;10.53;8.17;;;;;;;;;;4962452;28;20585;-83
2020/12/14 07:20:58;;;;;;;10.63;7.87;;;;;;;;;;4958342;28;20653;-83
2020/12/14 07:24:03;;;;;;;11.60;7.93;;;;;;;;;;4974909;28;20561;-82
2020/12/14 07:27:09;;;;;;;12.70;9.03;;;;;;;;;;4986220;28;20901;-82
2020/12/14 07:30:13;;;;;;;11.17;8.03;;;;;;;;;;4975227;28;20533;-82
2020/12/14 07:33:17;;;;;;;11.60;8.03;;;;;;;;;;4963557;28;20608;-82
2020/12/14 07:36:22;;;;;;;10.57;7.87;;;;;;;;;;4975283;28;21091;-82
2020/12/14 07:39:26;;;;;;;10.53;7.73;;;;;;;;;;4985982;28;20601;-82
2020/12/14 07:42:32;;;;;;;10.83;7.97;;;;;;;;;;4986000;28;20621;-82
2020/12/14 07:45:36;;;;;;;11.97;8.43;;;;;;;;;;4963888;28;20858;-82
2020/12/14 07:48:40;;;;;;;10.80;8.17;;;;;;;;;;4985944;28;20537;-82
2020/12/14 07:51:45;;;;;;;11.13;7.97;;;;;;;;;;4963637;28;20620;-82
2020/12/14 07:54:59;;;;;;;12.27;8.50;;;;;;;;;;4963545;28;20546;-82
2020/12/14 07:58:03;;;;;;;10.27;7.70;;;;;;;;;;4974554;28;20597;-82
2020/12/14 08:01:17;;;;;;;12.37;8.27;;;;;;;;;;4974174;28;20648;-82
2020/12/14 08:04:23;;;;;;;10.13;7.70;;;;;;;;;;4985497;28;20546;-82
2020/12/14 08:08:06;;;;;;;14.20;8.87;;;;;;;;;;4985529;28;21060;-82
2020/12/14 08:11:11;;;;;;;11.97;8.57;;;;;;;;;;4915552;29;21201;-82
2020/12/14 08:14:17;;;;;;;12.97;8.90;;;;;;;;;;4926536;29;20556;-82
2020/12/14 08:17:21;;;;;;;11.93;8.10;;;;;;;;;;4985159;28;20565;-82
2020/12/14 08:20:31;;;;;;;15.30;9.47;;;;;;;;;;4974367;28;20597;-82
2020/12/14 08:23:35;;;;;;;11.27;8.10;;;;;;;;;;4974057;28;20541;-82
2020/12/14 08:26:41;;;;;;;12.33;8.43;;;;;;;;;;4962144;28;21155;-83
2020/12/14 08:30:05;;;;;;;10.37;7.57;;;;;;;;;;4973735;28;20597;-82
2020/12/14 08:33:19;;;;;;;12.50;8.20;;;;;;;;;;4962484;28;20597;-82
2020/12/14 08:36:24;;;;;;;11.83;8.33;;;;;;;;;;4973534;28;20594;-84
2020/12/14 08:39:28;;;;;;;9.17;7.03;;;;;;;;;;4973660;28;20593;-83
2020/12/14 08:42:33;;;;;;;12.43;8.10;;;;;;;;;;4950748;29;20655;-83
2020/12/14 08:45:54;;;;;;;11.00;7.57;;;;;;;;;;4938467;28;20634;-83
2020/12/14 08:49:02;;;;;;;9.87;6.93;;;;;;;;;;4978848;28;20589;-84
2020/12/14 08:52:07;;;;;;;9.20;7.13;;;;;;;;;;4964710;28;20636;-84
2020/12/14 08:55:10;;;;;;;9.63;7.00;;;;;;;;;;4962146;28;20629;-84
2020/12/14 08:58:14;;;;;;;9.23;6.60;;;;;;;;;;4973382;28;20632;-83
2020/12/14 09:01:28;;;;;;;9.00;6.87;;;;;;;;;;4973295;28;20668;-84
2020/12/14 09:04:37;;;;;;;7.67;5.80;;;;;;;;;;4972748;28;20629;-83
2020/12/14 09:07:42;;;;;;;8.97;6.17;;;;;;;;;;4962573;28;20550;-83
2020/12/14 09:10:57;;;;;;;9.03;6.73;;;;;;;;;;4973310;28;20621;-83
2020/12/14 09:14:03;;;;;;;7.93;6.20;;;;;;;;;;4972531;28;20617;-83
2020/12/14 09:17:13;;;;;;;7.43;5.80;;;;;;;;;;4971603;28;20595;-83
2020/12/14 09:20:20;;;;;;;7.83;5.77;;;;;;;;;;4973259;28;20640;-83
2020/12/14 09:23:24;;;;;;;8.03;5.47;;;;;;;;;;4972884;28;20593;-84
2020/12/14 09:26:28;;;;;;;10.53;5.20;;;;;;;;;;4972913;28;20565;-84
2020/12/14 09:29:33;;;;;;;6.00;4.87;;;;;;;;;;4973007;28;20545;-83
2020/12/14 09:32:37;;;;;;;6.87;5.60;;;;;;;;;;4972894;28;20612;-83
2020/12/14 09:35:42;;;;;;;7.80;5.53;;;;;;;;;;4983737;28;20573;-83
2020/12/14 09:38:46;;;;;;;8.37;5.57;;;;;;;;;;4972795;28;20640;-83
2020/12/14 09:41:51;;;;;;;7.20;4.80;;;;;;;;;;4983441;28;20645;-85
2020/12/14 09:44:56;;;;;;;6.93;5.40;;;;;;;;;;4972850;28;20545;-85
2020/12/14 09:48:01;;;;;;;5.90;4.67;;;;;;;;;;4961717;28;20596;-85
2020/12/14 09:51:06;;;;;;;6.03;4.87;;;;;;;;;;4972496;28;20210;-85
2020/12/14 09:54:11;;;;;;;6.27;4.50;;;;;;;;;;4983511;28;20589;-85
2020/12/14 09:57:16;;;;;;;4.57;4.07;;;;;;;;;;4961269;28;20542;-85
2020/12/14 10:00:20;;;;;;;5.33;4.50;;;;;;;;;;4972361;28;20589;-85
2020/12/14 10:03:24;;;;;;;5.03;4.23;;;;;;;;;;4961208;28;20554;-85
2020/12/14 10:06:28;;;;;;;5.60;4.27;;;;;;;;;;4981063;28;21195;-85
2020/12/14 10:09:32;;;;;;;5.07;4.20;;;;;;;;;;4961080;28;20945;-85
2020/12/14 10:12:37;;;;;;;5.27;3.60;;;;;;;;;;4994795;28;21207;-85
2020/12/14 10:15:41;;;;;;;4.80;3.90;;;;;;;;;;4971982;28;20597;-85
2020/12/14 10:18:46;;;;;;;4.60;3.90;;;;;;;;;;4971638;28;20213;-88
2020/12/14 10:21:50;;;;;;;5.20;3.87;;;;;;;;;;4961159;28;20225;-87
2020/12/14 10:24:54;;;;;;;5.03;3.97;;;;;;;;;;4960551;28;20557;-87
2020/12/14 10:27:58;;;;;;;5.13;4.00;;;;;;;;;;4971561;28;20593;-87
2020/12/14 10:31:07;;;;;;;5.67;4.27;;;;;;;;;;4971807;28;20620;-87
2020/12/14 10:34:11;;;;;;;4.67;4.20;;;;;;;;;;4982679;28;20190;-87
2020/12/14 10:37:16;;;;;;;5.77;4.93;;;;;;;;;;4971958;28;20586;-87
2020/12/14 10:40:20;;;;;;;6.70;4.47;;;;;;;;;;4982760;28;20597;-87
2020/12/14 10:43:24;;;;;;;4.70;4.17;;;;;;;;;;4971717;28;20605;-87
2020/12/14 10:46:28;;;;;;;6.33;4.70;;;;;;;;;;4971948;28;21095;-87
2020/12/14 10:49:33;;;;;;;5.67;4.43;;;;;;;;;;4944051;29;20868;-88
2020/12/14 10:52:37;;;;;;;5.50;4.30;;;;;;;;;;4958024;28;20993;-87
2020/12/14 10:55:41;;;;;;;5.37;4.53;;;;;;;;;;4971507;28;20537;-87
2020/12/14 10:58:45;;;;;;;5.60;4.33;;;;;;;;;;4960108;28;20941;-88
2020/12/14 11:01:50;;;;;;;5.00;3.90;;;;;;;;;;4996193;22;21026;-87
2020/12/14 11:04:54;;;;;;;4.67;4.17;;;;;;;;;;5029876;28;20535;-88
2020/12/14 11:07:59;;;;;;;4.77;3.73;;;;;;;;;;5041281;28;20547;-88
2020/12/14 11:11:03;;;;;;;4.47;3.87;;;;;;;;;;5017747;28;20893;-88
2020/12/14 11:14:07;;;;;;;4.60;4.00;;;;;;;;;;4960539;28;20534;-90
2020/12/14 11:17:23;;;;;;;5.07;3.90;;;;;;;;;;4995565;28;20620;-88
2020/12/14 11:20:47;;;;;;;6.00;4.63;;;;;;;;;;5001039;28;20636;-89
2020/12/14 11:23:51;;;;;;;5.20;4.23;;;;;;;;;;4960355;28;20533;-89
2020/12/14 11:26:55;;;;;;;5.90;4.97;;;;;;;;;;4993441;28;20936;-90
2020/12/14 11:30:00;;;;;;;6.50;5.43;;;;;;;;;;4982739;28;20542;-91
2020/12/14 11:33:05;;;;;;;6.13;4.90;;;;;;;;;;4960267;28;20633;-91
2020/12/14 11:36:09;;;;;;;6.80;5.23;;;;;;;;;;5000790;28;20623;-90
2020/12/14 11:39:14;;;;;;;8.53;5.00;;;;;;;;;;5019637;28;20659;-90
2020/12/14 11:42:18;;;;;;;7.17;5.07;;;;;;;;;;4998850;28;20635;-90
2020/12/14 11:45:22;;;;;;;8.23;6.23;;;;;;;;;;5009646;28;20611;-89
2020/12/14 11:48:26;;;;;;;9.37;7.23;;;;;;;;;;4998558;28;20587;-89
2020/12/14 11:51:30;;;;;;;10.47;7.30;;;;;;;;;;5001091;28;20651;-89
2020/12/14 11:54:35;;;;;;;8.43;6.57;;;;;;;;;;4980903;28;20604;-89
2020/12/14 11:57:39;;;;;;;9.43;6.80;;;;;;;;;;4998601;28;20612;-89
2020/12/14 12:00:43;;;;;;;9.50;7.40;;;;;;;;;;4990988;28;21233;-90
2020/12/14 12:03:48;;;;;;;9.70;7.20;;;;;;;;;;5012990;28;20604;-89
2020/12/14 12:06:52;;;;;;;10.93;8.30;;;;;;;;;;4992130;28;20536;-88
2020/12/14 12:09:57;;;;;;;8.57;6.90;;;;;;;;;;5002346;28;20598;-88
2020/12/14 12:13:00;;;;;;;8.47;6.73;;;;;;;;;;5012085;28;20639;-88
2020/12/14 12:16:06;;;;;;;13.07;8.53;;;;;;;;;;5008673;28;20652;-88
2020/12/14 12:19:12;;;;;;;15.10;8.80;;;;;;;;;;4994069;28;20177;-89
2020/12/14 12:22:17;;;;;;;13.27;9.03;;;;;;;;;;4992647;28;20201;-88
2020/12/14 12:25:21;;;;;;;8.17;6.60;;;;;;;;;;4986070;28;20521;-90
2020/12/14 12:28:25;;;;;;;8.47;6.87;;;;;;;;;;4994982;28;20517;-89
2020/12/14 12:31:29;;;;;;;10.63;8.00;;;;;;;;;;4993450;28;20217;-88
2020/12/14 12:34:34;;;;;;;9.97;7.70;;;;;;;;;;4981829;28;20201;-89
2020/12/14 12:37:39;;;;;;;9.00;7.77;;;;;;;;;;4993604;28;20620;-88
2020/12/14 12:40:43;;;;;;;7.77;6.97;;;;;;;;;;4982006;28;20217;-88
2020/12/14 12:43:46;;;;;;;12.47;8.83;;;;;;;;;;5004569;28;20187;-89
2020/12/14 12:46:51;;;;;;;10.83;8.93;;;;;;;;;;4981948;28;20509;-88
2020/12/14 12:49:55;;;;;;;11.30;8.40;;;;;;;;;;4993050;28;20178;-84
2020/12/14 12:52:59;;;;;;;10.63;8.67;;;;;;;;;;4992460;28;20208;-85
2020/12/14 12:56:04;;;;;;;11.27;8.80;;;;;;;;;;4981863;28;20185;-84
2020/12/14 12:59:08;;;;;;;11.53;8.53;;;;;;;;;;4981900;28;20616;-85
2020/12/14 13:02:12;;;;;;;12.00;9.20;;;;;;;;;;4992396;28;20217;-84
2020/12/14 13:05:17;;;;;;;14.20;9.17;;;;;;;;;;4992924;28;20186;-85
2020/12/14 13:08:21;;;;;;;11.27;8.80;;;;;;;;;;5015694;28;20201;-85
2020/12/14 13:11:26;;;;;;;13.13;8.27;;;;;;;;;;4981098;28;20181;-84
2020/12/14 13:14:30;;;;;;;11.27;8.63;;;;;;;;;;4992501;28;20517;-84
2020/12/14 13:17:34;;;;;;;10.53;8.57;;;;;;;;;;5003356;28;20193;-85
2020/12/14 13:20:39;;;;;;;11.73;8.83;;;;;;;;;;4992357;28;20225;-85
2020/12/14 13:23:43;;;;;;;11.03;8.90;;;;;;;;;;5003365;28;20198;-84
2020/12/14 13:26:47;;;;;;;12.50;8.73;;;;;;;;;;4992307;28;20540;-85
2020/12/14 13:29:51;;;;;;;11.30;8.73;;;;;;;;;;4992261;28;20177;-85
2020/12/14 13:32:55;;;;;;;10.87;8.33;;;;;;;;;;4992182;28;20709;-85
2020/12/14 13:36:01;;;;;;;9.67;7.17;;;;;;;;;;4992114;28;20178;-85
2020/12/14 13:39:05;;;;;;;10.03;8.10;;;;;;;;;;4992592;28;20629;-85
2020/12/14 13:42:10;;;;;;;10.70;7.50;;;;;;;;;;4991725;28;20217;-84
2020/12/14 13:45:14;;;;;;;7.97;6.63;;;;;;;;;;4980773;28;20178;-84
2020/12/14 13:48:18;;;;;;;7.77;6.57;;;;;;;;;;4980524;28;20181;-84
2020/12/14 13:51:24;;;;;;;7.63;6.23;;;;;;;;;;4991733;28;20186;-84
2020/12/14 13:54:28;;;;;;;9.23;6.67;;;;;;;;;;4980570;28;20177;-85
2020/12/14 13:57:32;;;;;;;9.50;7.57;;;;;;;;;;4980614;28;20334;-88
2020/12/14 14:00:36;;;;;;;16.70;8.43;;;;;;;;;;4980550;28;20209;-85
2020/12/14 14:03:40;;;;;;;7.57;6.47;;;;;;;;;;5003344;28;20185;-88
2020/12/14 14:06:51;;;;;;;7.63;6.27;;;;;;;;;;4980272;28;20893;-87
2020/12/14 14:09:54;;;;;;;9.30;6.80;;;;;;;;;;5002409;28;20525;-88
2020/12/14 14:12:59;;;;;;;7.63;6.28;;;;;;;;;;4980122;28;20497;-88
2020/12/14 14:16:04;;;;;;;9.05;8.10;;;;;;;;;;4990287;28;20688;-88
2020/12/14 14:19:07;;;;;;;7.20;6.07;;;;;;;;;;4980296;28;20514;-87
2020/12/14 14:22:12;;;;;;;7.50;5.90;;;;;;;;;;4979949;28;20221;-86
2020/12/14 14:25:16;;;;;;;6.83;5.60;;;;;;;;;;4991202;28;20182;-86
2020/12/14 14:28:20;;;;;;;6.67;5.80;;;;;;;;;;4991056;28;20548;-86
2020/12/14 14:31:24;;;;;;;7.17;5.97;;;;;;;;;;4991250;28;20174;-86
2020/12/14 14:34:28;;;;;;;8.73;5.77;;;;;;;;;;4991082;28;20177;-87
2020/12/14 14:37:38;;;;;;;8.13;5.77;;;;;;;;;;4979964;28;20544;-87
2020/12/14 14:40:43;;;;;;;9.53;6.70;;;;;;;;;;4991579;28;20221;-86
2020/12/14 14:43:48;;;;;;;10.17;6.90;;;;;;;;;;5004706;28;20185;-87
2020/12/14 14:46:54;;;;;;;9.20;7.07;;;;;;;;;;4979603;28;20592;-85
2020/12/14 14:49:59;;;;;;;8.80;7.10;;;;;;;;;;5000546;28;20707;-85
2020/12/14 14:53:03;;;;;;;9.00;7.27;;;;;;;;;;4993857;28;20655;-85
2020/12/14 14:56:07;;;;;;;9.57;7.17;;;;;;;;;;4978186;28;20572;-86
2020/12/14 14:59:12;;;;;;;9.63;6.87;;;;;;;;;;5001734;28;20540;-86
2020/12/14 15:02:16;;;;;;;9.13;7.13;;;;;;;;;;4997743;28;20659;-86
2020/12/14 15:05:20;;;;;;;8.83;6.87;;;;;;;;;;4986047;28;20611;-86
2020/12/14 15:08:28;;;;;;;8.70;6.97;;;;;;;;;;4979672;28;20541;-86
2020/12/14 15:11:37;;;;;;;11.17;7.47;;;;;;;;;;4984082;28;20641;-86
2020/12/14 15:14:41;;;;;;;10.20;7.30;;;;;;;;;;4998496;28;20591;-86
2020/12/14 15:17:45;;;;;;;10.60;6.57;;;;;;;;;;4986038;28;20585;-86
2020/12/14 15:20:49;;;;;;;11.50;7.83;;;;;;;;;;4976858;28;20656;-85
2020/12/14 15:23:53;;;;;;;14.30;7.97;;;;;;;;;;4980082;28;20612;-87
2020/12/14 15:26:58;;;;;;;14.63;9.97;;;;;;;;;;4993947;28;20592;-87
2020/12/14 15:30:03;;;;;;;17.47;9.90;;;;;;;;;;4980637;28;20587;-86
2020/12/14 15:33:07;;;;;;;13.70;8.80;;;;;;;;;;5007819;28;20654;-86
2020/12/14 15:36:23;;;;;;;12.33;8.77;;;;;;;;;;4990470;28;20597;-86
2020/12/14 15:39:27;;;;;;;10.93;7.73;;;;;;;;;;4980020;28;20616;-86
2020/12/14 15:42:32;;;;;;;13.13;8.67;;;;;;;;;;5008231;28;20627;-86
2020/12/14 15:45:36;;;;;;;13.73;9.20;;;;;;;;;;5000830;28;20591;-86
2020/12/14 15:48:40;;;;;;;12.17;8.07;;;;;;;;;;5013677;28;21046;-86
2020/12/14 15:51:44;;;;;;;14.73;8.53;;;;;;;;;;4974858;28;21186;-87
2020/12/14 15:54:48;;;;;;;9.77;7.30;;;;;;;;;;4996813;28;20569;-87
2020/12/14 15:57:53;;;;;;;13.83;8.03;;;;;;;;;;4997225;28;21057;-86
2020/12/14 16:00:58;;;;;;;13.93;8.77;;;;;;;;;;4985604;28;20597;-87
2020/12/14 16:04:02;;;;;;;15.03;9.20;;;;;;;;;;4975027;28;20542;-87
2020/12/14 16:07:07;;;;;;;14.33;8.50;;;;;;;;;;4981930;28;20541;-87
2020/12/14 16:10:11;;;;;;;14.10;8.60;;;;;;;;;;4987985;28;20553;-88
2020/12/14 16:13:16;;;;;;;10.03;7.37;;;;;;;;;;4974742;28;20613;-88
2020/12/14 16:16:21;;;;;;;14.80;9.70;;;;;;;;;;4974400;28;20549;-88
2020/12/14 16:19:26;;;;;;;14.83;10.10;;;;;;;;;;4974318;28;20553;-88
2020/12/14 16:22:30;;;;;;;19.40;12.80;;;;;;;;;;4972586;28;20675;-87
2020/12/14 16:25:35;;;;;;;24.37;15.53;;;;;;;;;;5006512;28;21165;-88
2020/12/14 16:28:39;;;;;;;22.20;14.60;;;;;;;;;;5004566;28;20595;-88
2020/12/14 16:31:44;;;;;;;29.40;18.17;;;;;;;;;;4997593;28;20620;-88
2020/12/14 16:34:48;;;;;;;35.83;20.43;;;;;;;;;;4996669;28;20560;-88
2020/12/14 16:37:53;;;;;;;22.63;13.93;;;;;;;;;;4998061;28;20545;-88
2020/12/14 16:40:57;;;;;;;28.30;16.20;;;;;;;;;;5009250;28;20605;-88
2020/12/14 16:44:02;;;;;;;28.53;16.43;;;;;;;;;;5010179;28;20544;-88
2020/12/14 16:47:07;;;;;;;27.57;16.87;;;;;;;;;;4993210;28;20592;-87
2020/12/14 16:50:15;;;;;;;38.83;20.43;;;;;;;;;;5004977;28;20548;-87
2020/12/14 16:53:19;;;;;;;32.97;18.17;;;;;;;;;;4991890;28;20615;-87
2020/12/14 16:56:23;;;;;;;33.10;17.47;;;;;;;;;;4993283;28;20548;-87
2020/12/14 16:59:27;;;;;;;22.90;15.13;;;;;;;;;;4992803;28;21170;-87
2020/12/14 17:02:31;;;;;;;22.23;13.40;;;;;;;;;;4992468;28;20666;-87
2020/12/14 17:05:36;;;;;;;17.67;12.50;;;;;;;;;;5004094;28;20545;-87
2020/12/14 17:08:41;;;;;;;20.27;12.63;;;;;;;;;;4992810;28;20541;-86
2020/12/14 17:11:44;;;;;;;19.13;12.60;;;;;;;;;;4992758;28;20631;-86
2020/12/14 17:14:49;;;;;;;17.77;12.13;;;;;;;;;;5004117;28;20541;-86
2020/12/14 17:17:53;;;;;;;16.50;11.90;;;;;;;;;;4992249;28;20592;-86
2020/12/14 17:20:58;;;;;;;16.87;11.27;;;;;;;;;;4992365;28;20665;-87
2020/12/14 17:24:02;;;;;;;16.10;11.60;;;;;;;;;;5003766;28;20537;-86
2020/12/14 17:27:06;;;;;;;16.00;11.03;;;;;;;;;;4994326;28;20592;-88
2020/12/14 17:30:10;;;;;;;15.77;10.83;;;;;;;;;;5011318;28;20599;-86
2020/12/14 17:33:14;;;;;;;18.27;11.40;;;;;;;;;;5022722;28;20622;-85
2020/12/14 17:36:18;;;;;;;22.73;15.93;;;;;;;;;;5000568;28;21171;-86
2020/12/14 17:39:22;;;;;;;34.53;23.63;;;;;;;;;;5011751;28;20603;-86
2020/12/14 17:42:26;;;;;;;29.10;19.23;;;;;;;;;;5011122;28;20659;-86
2020/12/14 17:45:30;;;;;;;15.30;10.67;;;;;;;;;;4991825;28;20596;-88
2020/12/14 17:48:35;;;;;;;14.47;10.80;;;;;;;;;;4980697;28;20940;-87
2020/12/14 17:51:40;;;;;;;14.17;10.90;;;;;;;;;;4980882;28;20633;-88
2020/12/14 17:54:45;;;;;;;15.33;11.17;;;;;;;;;;4991684;28;20540;-88
2020/12/14 17:57:49;;;;;;;15.67;11.37;;;;;;;;;;5003323;28;20544;-87
2020/12/14 18:00:54;;;;;;;14.93;10.87;;;;;;;;;;5002896;28;20877;-88
2020/12/14 18:03:58;;;;;;;16.37;10.73;;;;;;;;;;4979783;28;20533;-87
2020/12/14 18:07:04;;;;;;;14.33;10.57;;;;;;;;;;4992821;28;20592;-88
2020/12/14 18:10:08;;;;;;;21.83;14.27;;;;;;;;;;4980175;28;20599;-89
2020/12/14 18:13:12;;;;;;;27.93;16.10;;;;;;;;;;5002521;28;20620;-88
2020/12/14 18:16:18;;;;;;;17.17;11.77;;;;;;;;;;4994847;28;20615;-88
2020/12/14 18:19:22;;;;;;;19.53;12.70;;;;;;;;;;5011304;28;21145;-88